Hanjin Santana — 3EYU3 — position and weather

sailwx.info

Track history (hours):
 
Tides and Currents Weather Stations Pressure Air Temp Water Temp Dewpoint Dewpoint Depression Visibility Wind Speed Wind Dir Waves Ship Positions

Hanjin Santana

Last reported at 2015-May-21 06:07 UTC. Time now 2015-Jun-30 12:44 UTC.
Position N 09°32' E 125°54'.
Warning: this ship's position is 40 days out of date.

Length 196 m; draft 6.4 m.

Type: Cargo ship. MMSI: 373673000.

Date/timePositionNaut miles runAvg speedWind from/ knotsBaromVisibWave heightAir tempDewpointWater temp
2015-May-21 06:07N 09°32' E 125°54'0 0.1
2015-May-21 04:22N 09°32' E 125°54'0 0.0
2015-May-20 04:04N 09°32' E 125°54'0 0.0
2015-May-18 11:16N 09°32' E 125°54'0 0.1
2015-May-18 10:25N 09°32' E 125°54'0 0.0
2015-May-18 05:19N 09°32' E 125°53'  
2015-May-14 08:07N 09°32' E 125°53'0 0.1
2015-May-14 07:19N 09°32' E 125°54'0 0.1
2015-May-14 06:16N 09°32' E 125°53'0 0.0
2015-May-14 05:28N 09°32' E 125°53'0 0.0
2015-May-14 03:27N 09°32' E 125°53'11 9.5
2015-May-14 02:19N 09°40' E 125°47'1113.9
2015-May-14 01:33N 09°48' E 125°40'9 8.8
2015-May-14 00:34N 09°48' E 125°31'0 0.0
2015-May-13 23:33N 09°48' E 125°31'4 4.4
2015-May-13 22:33N 09°51' E 125°28'8 7.8
2015-May-13 21:33N 09°51' E 125°20'1211.6
2015-May-13 20:33N 09°45' E 125°10'1211.9
2015-May-13 19:31N 09°39' E 124°59'5610.5
2015-May-13 14:11N 09°12' E 124°09'811.2
2015-May-13 13:28N 09°09' E 124°02'1111.3
2015-May-13 12:27N 09°04' E 123°51'1211.1
2015-May-13 11:23N 08°59' E 123°40'911.3
2015-May-13 10:33N 08°58' E 123°31'1111.0
2015-May-13 09:33N 08°56' E 123°20'1111.1
2015-May-13 08:32N 08°56' E 123°08'1111.0
2015-May-13 07:33N 08°56' E 122°58'1311.3
2015-May-13 06:23N 08°54' E 122°44'1211.7
2015-May-13 05:23N 08°51' E 122°33'  
Track history (hours):
 
Tides and Currents Weather Stations Pressure Air Temp Water Temp Dewpoint Dewpoint Depression Visibility Wind Speed Wind Dir Waves Ship Positions

Hanjin Santana

Last reported at 2015-May-21 06:07 UTC. Time now 2015-Jun-30 12:44 UTC.
Position N 09°32' E 125°54'.
Warning: this ship's position is 40 days out of date.

Length 196 m; draft 6.4 m.

Type: Cargo ship. MMSI: 373673000.

Date/timePositionNaut miles runAvg speedWind from/ knotsBaromVisibWave heightAir tempDewpointWater temp
2015-May-21 06:07N 09°32' E 125°54'0 0.1
2015-May-21 04:22N 09°32' E 125°54'0 0.0
2015-May-20 04:04N 09°32' E 125°54'0 0.0
2015-May-18 11:16N 09°32' E 125°54'0 0.1
2015-May-18 10:25N 09°32' E 125°54'0 0.0
2015-May-18 05:19N 09°32' E 125°53'  
2015-May-14 08:07N 09°32' E 125°53'0 0.1
2015-May-14 07:19N 09°32' E 125°54'0 0.1
2015-May-14 06:16N 09°32' E 125°53'0 0.0
2015-May-14 05:28N 09°32' E 125°53'0 0.0
2015-May-14 03:27N 09°32' E 125°53'11 9.5
2015-May-14 02:19N 09°40' E 125°47'1113.9
2015-May-14 01:33N 09°48' E 125°40'9 8.8
2015-May-14 00:34N 09°48' E 125°31'0 0.0
2015-May-13 23:33N 09°48' E 125°31'4 4.4
2015-May-13 22:33N 09°51' E 125°28'8 7.8
2015-May-13 21:33N 09°51' E 125°20'1211.6
2015-May-13 20:33N 09°45' E 125°10'1211.9
2015-May-13 19:31N 09°39' E 124°59'5610.5
2015-May-13 14:11N 09°12' E 124°09'811.2
2015-May-13 13:28N 09°09' E 124°02'1111.3
2015-May-13 12:27N 09°04' E 123°51'1211.1
2015-May-13 11:23N 08°59' E 123°40'911.3
2015-May-13 10:33N 08°58' E 123°31'1111.0
2015-May-13 09:33N 08°56' E 123°20'1111.1
2015-May-13 08:32N 08°56' E 123°08'1111.0
2015-May-13 07:33N 08°56' E 122°58'1311.3
2015-May-13 06:23N 08°54' E 122°44'1211.7
2015-May-13 05:23N 08°51' E 122°33'  

Dump ship's entire track history